createdAt,value
2023-06-29T00:01:00.337Z,62.00
2023-06-29T00:04:02.803Z,62.57
2023-06-29T00:07:04.776Z,63.16
2023-06-29T00:10:09.081Z,62.28
2023-06-29T00:13:10.575Z,62.56
2023-06-29T00:16:12.142Z,62.37
2023-06-29T00:19:15.610Z,63.37
2023-06-29T00:22:18.521Z,63.11
2023-06-29T00:25:20.622Z,63.71
2023-06-29T00:28:22.224Z,63.12
2023-06-29T00:31:25.353Z,62.36
2023-06-29T00:34:29.883Z,62.41
2023-06-29T00:37:38.945Z,62.50
2023-06-29T00:40:40.491Z,62.25
2023-06-29T00:44:09.023Z,63.38
2023-06-29T00:47:23.030Z,63.57
2023-06-29T00:50:25.669Z,63.75
2023-06-29T00:53:36.167Z,63.67
2023-06-29T00:56:38.673Z,63.49
2023-06-29T00:59:40.205Z,63.45
2023-06-29T01:02:47.767Z,64.29
2023-06-29T01:05:51.829Z,64.63
2023-06-29T01:09:13.467Z,65.33
2023-06-29T01:12:16.781Z,64.72
2023-06-29T01:15:28.257Z,65.03
2023-06-29T01:18:31.655Z,65.65
2023-06-29T01:21:38.679Z,66.11
2023-06-29T01:24:43.453Z,66.04
2023-06-29T01:28:10.274Z,66.56
2023-06-29T01:31:14.860Z,66.93
2023-06-29T01:34:22.568Z,66.86
2023-06-29T01:37:29.594Z,66.75
2023-06-29T01:40:38.167Z,66.06
2023-06-29T01:44:12.644Z,66.32
2023-06-29T01:47:17.032Z,65.70
2023-06-29T01:50:26.570Z,66.27
2023-06-29T01:53:32.905Z,66.47
2023-06-29T01:56:38.360Z,66.91
2023-06-29T01:59:40.901Z,66.76
2023-06-29T02:02:43.082Z,66.69
2023-06-29T02:05:48.140Z,67.04
2023-06-29T02:08:52.969Z,67.33
2023-06-29T02:12:09.362Z,68.07
2023-06-29T02:15:18.319Z,68.24
2023-06-29T02:18:20.997Z,68.42
2023-06-29T02:21:22.636Z,67.71
2023-06-29T02:27:39.990Z,68.69
2023-06-29T02:30:41.670Z,67.19
2023-06-29T02:33:53.400Z,66.47
2023-06-29T02:36:56.698Z,65.80
2023-06-29T02:40:13.699Z,66.28
2023-06-29T02:43:16.494Z,66.94
2023-06-29T02:46:25.817Z,69.16
2023-06-29T02:49:27.719Z,69.63
2023-06-29T02:52:35.671Z,69.53
2023-06-29T02:55:45.393Z,69.99
2023-06-29T02:58:47.151Z,70.94
2023-06-29T03:01:57.206Z,71.07
2023-06-29T03:04:58.789Z,71.26
2023-06-29T03:08:03.305Z,71.79
2023-06-29T03:11:07.008Z,71.99
2023-06-29T03:14:15.974Z,72.06
2023-06-29T03:17:17.617Z,72.97
2023-06-29T03:20:26.551Z,72.08
2023-06-29T03:23:37.342Z,72.01
2023-06-29T03:26:39.792Z,71.60
2023-06-29T03:29:44.350Z,72.03
2023-06-29T03:32:46.029Z,71.54
2023-06-29T03:35:50.444Z,71.32
2023-06-29T03:38:52.260Z,71.27
2023-06-29T03:41:53.829Z,71.24
2023-06-29T03:48:21.154Z,71.18
2023-06-29T03:51:24.001Z,71.46
2023-06-29T03:54:26.871Z,71.78
2023-06-29T04:00:44.027Z,72.44
2023-06-29T04:03:46.079Z,73.25
2023-06-29T04:06:47.754Z,73.11
2023-06-29T04:09:51.700Z,72.73
2023-06-29T04:12:53.207Z,71.63
2023-06-29T04:19:10.473Z,71.14
2023-06-29T04:22:12.079Z,71.13
2023-06-29T04:25:13.835Z,70.89
2023-06-29T04:28:15.486Z,71.80
2023-06-29T04:31:17.109Z,72.10
2023-06-29T04:34:18.841Z,72.84
2023-06-29T04:37:39.551Z,72.69
2023-06-29T04:40:41.171Z,72.66
2023-06-29T04:43:52.323Z,72.36
2023-06-29T04:46:54.042Z,72.37
2023-06-29T04:49:57.975Z,72.00
2023-06-29T04:53:00.294Z,70.56
2023-06-29T04:56:05.270Z,70.21
2023-06-29T05:02:25.170Z,69.86
2023-06-29T05:05:29.019Z,69.42
2023-06-29T05:08:33.385Z,71.38
2023-06-29T05:11:35.686Z,71.18
2023-06-29T05:14:37.303Z,70.05
2023-06-29T05:17:38.894Z,70.12
2023-06-29T05:20:40.434Z,70.40
2023-06-29T05:24:10.331Z,69.04
2023-06-29T05:27:12.055Z,68.38
2023-06-29T05:30:14.594Z,70.29
2023-06-29T05:33:22.212Z,70.47
2023-06-29T05:36:23.755Z,70.29
2023-06-29T05:39:28.046Z,70.32
2023-06-29T05:42:32.514Z,69.90
2023-06-29T05:45:43.309Z,68.94
2023-06-29T05:48:45.034Z,68.23
2023-06-29T05:52:01.001Z,67.60
2023-06-29T05:55:27.769Z,66.72
2023-06-29T05:58:44.550Z,65.34
2023-06-29T06:01:46.281Z,64.67
2023-06-29T06:05:09.803Z,64.97
2023-06-29T06:08:12.321Z,64.91
2023-06-29T06:11:14.997Z,64.31
2023-06-29T06:14:17.040Z,64.12
2023-06-29T06:17:18.886Z,64.33
2023-06-29T06:20:20.510Z,64.10
2023-06-29T06:23:25.045Z,64.63
2023-06-29T06:26:27.071Z,64.53
2023-06-29T06:29:31.739Z,62.74
2023-06-29T06:32:33.359Z,63.54
2023-06-29T06:35:37.014Z,64.31
2023-06-29T06:38:49.495Z,65.19
2023-06-29T06:41:51.961Z,65.60
2023-06-29T06:45:00.936Z,64.14
2023-06-29T06:48:02.542Z,63.15
2023-06-29T06:51:08.074Z,63.16
2023-06-29T06:54:11.775Z,62.03
2023-06-29T06:57:13.366Z,62.16
2023-06-29T07:00:15.499Z,62.04
2023-06-29T07:03:17.195Z,61.69
2023-06-29T07:06:19.717Z,61.67
2023-06-29T07:09:21.389Z,61.85
2023-06-29T07:12:32.215Z,61.57
2023-06-29T07:15:33.781Z,61.38
2023-06-29T07:18:39.261Z,61.62
2023-06-29T07:21:43.486Z,61.14
2023-06-29T07:24:45.166Z,61.09
2023-06-29T07:27:54.026Z,59.62
2023-06-29T07:31:14.368Z,59.26
2023-06-29T07:34:16.367Z,60.41
2023-06-29T07:37:19.981Z,58.33
2023-06-29T07:40:29.504Z,55.38
2023-06-29T07:43:31.881Z,53.69
2023-06-29T07:46:33.579Z,53.20
2023-06-29T07:49:42.623Z,52.24
2023-06-29T07:52:44.205Z,53.62
2023-06-29T07:59:33.863Z,52.41
2023-06-29T08:02:35.443Z,50.12
2023-06-29T08:08:41.911Z,49.95
2023-06-29T08:11:50.759Z,49.64
2023-06-29T08:14:52.288Z,48.96
2023-06-29T08:17:53.950Z,49.82
2023-06-29T08:20:55.511Z,49.74
2023-06-29T08:24:03.375Z,49.15
2023-06-29T08:27:05.179Z,49.48
2023-06-29T08:30:25.418Z,50.58
2023-06-29T08:33:27.407Z,49.94
2023-06-29T08:36:34.526Z,49.93
2023-06-29T08:39:36.234Z,49.62
2023-06-29T08:42:41.360Z,49.81
2023-06-29T08:45:44.830Z,48.12
2023-06-29T08:48:47.151Z,47.33
2023-06-29T08:51:52.063Z,47.16
2023-06-29T08:54:54.434Z,46.51
2023-06-29T08:57:56.070Z,46.75
2023-06-29T09:00:58.682Z,45.37
2023-06-29T09:04:03.550Z,45.39
2023-06-29T09:07:07.769Z,43.01
2023-06-29T09:10:12.170Z,43.45
2023-06-29T09:13:14.701Z,43.20
2023-06-29T09:16:31.529Z,43.54
2023-06-29T09:19:33.281Z,42.49
2023-06-29T09:22:52.474Z,41.43
2023-06-29T09:26:05.410Z,42.28
2023-06-29T09:29:25.453Z,41.57
2023-06-29T09:32:29.920Z,40.52
2023-06-29T09:35:31.457Z,39.71
2023-06-29T09:38:33.591Z,39.65
2023-06-29T09:42:08.067Z,39.46
2023-06-29T09:45:33.445Z,38.37
2023-06-29T09:52:03.159Z,40.13
2023-06-29T09:55:04.943Z,38.47
2023-06-29T09:58:08.161Z,37.66
2023-06-29T10:01:10.961Z,37.46
2023-06-29T10:04:12.710Z,37.63
2023-06-29T10:07:20.834Z,38.04
2023-06-29T10:10:26.023Z,37.47
2023-06-29T10:13:34.955Z,37.42
2023-06-29T10:16:42.006Z,37.18
2023-06-29T10:20:05.200Z,37.23
2023-06-29T10:23:08.602Z,38.07
2023-06-29T10:26:13.650Z,37.92
2023-06-29T10:29:17.589Z,37.80
2023-06-29T10:32:35.669Z,38.25
2023-06-29T10:35:37.758Z,36.50
2023-06-29T10:38:45.489Z,36.75
2023-06-29T10:41:49.623Z,37.70
2023-06-29T10:44:51.763Z,36.62
2023-06-29T10:48:05.803Z,37.07
2023-06-29T10:51:15.035Z,37.27
2023-06-29T10:54:17.577Z,37.42
2023-06-29T10:57:31.849Z,37.23
2023-06-29T11:00:40.927Z,38.13
2023-06-29T11:03:43.367Z,37.61
2023-06-29T11:06:45.058Z,37.54
2023-06-29T11:10:07.359Z,37.04
2023-06-29T11:13:10.594Z,37.62
2023-06-29T11:16:13.819Z,36.32
2023-06-29T11:19:15.491Z,36.92
2023-06-29T11:22:20.912Z,37.93
2023-06-29T11:25:22.640Z,37.13
2023-06-29T11:28:29.457Z,38.60
2023-06-29T11:31:31.560Z,38.46
2023-06-29T11:34:35.524Z,39.20
2023-06-29T11:37:41.375Z,38.33
2023-06-29T11:40:42.963Z,36.42
2023-06-29T11:43:45.127Z,35.87
2023-06-29T11:46:54.704Z,35.39
2023-06-29T11:50:09.129Z,35.44
2023-06-29T11:53:11.701Z,34.49
2023-06-29T11:56:38.467Z,35.40
2023-06-29T11:59:43.098Z,34.42
2023-06-29T12:02:46.002Z,34.42
2023-06-29T12:05:48.614Z,33.83
2023-06-29T12:08:54.920Z,33.29
2023-06-29T12:12:09.685Z,34.13
2023-06-29T12:15:16.709Z,33.58
2023-06-29T12:18:29.259Z,33.15
2023-06-29T12:21:42.494Z,32.34
2023-06-29T12:24:53.742Z,33.11
2023-06-29T12:27:55.327Z,32.49
2023-06-29T12:31:09.696Z,32.46
2023-06-29T12:34:11.266Z,31.53
2023-06-29T12:37:15.833Z,33.03
2023-06-29T12:40:19.811Z,33.93
2023-06-29T12:43:21.358Z,34.15
2023-06-29T12:49:43.610Z,33.70
2023-06-29T12:52:48.218Z,33.71
2023-06-29T12:55:49.932Z,32.90
2023-06-29T12:58:51.618Z,34.06
2023-06-29T13:02:23.519Z,33.49
2023-06-29T13:05:22.880Z,34.97
2023-06-29T13:08:36.687Z,34.14
2023-06-29T13:11:45.485Z,34.84
2023-06-29T13:14:51.148Z,34.40
2023-06-29T13:17:55.974Z,35.07
2023-06-29T13:21:01.005Z,35.03
2023-06-29T13:24:02.979Z,35.36
2023-06-29T13:27:05.485Z,34.45
2023-06-29T13:30:08.787Z,35.68
2023-06-29T13:33:17.696Z,35.43
2023-06-29T13:36:19.208Z,35.29
2023-06-29T13:39:20.742Z,36.03
2023-06-29T13:42:23.669Z,35.42
2023-06-29T13:45:25.324Z,36.77
2023-06-29T13:48:27.912Z,34.82
2023-06-29T13:51:30.615Z,34.34
2023-06-29T13:54:32.243Z,34.49
2023-06-29T13:57:36.795Z,35.18
2023-06-29T14:00:38.878Z,36.85
2023-06-29T14:03:40.586Z,36.72
2023-06-29T14:06:48.061Z,37.22
2023-06-29T14:09:55.899Z,38.01
2023-06-29T14:12:59.604Z,37.22
2023-06-29T14:16:04.393Z,37.16
2023-06-29T14:19:06.728Z,37.45
2023-06-29T14:22:09.747Z,37.42
2023-06-29T14:25:11.376Z,38.19
2023-06-29T14:28:19.987Z,37.77
2023-06-29T14:31:21.651Z,38.36
2023-06-29T14:34:23.372Z,37.87
2023-06-29T14:37:26.045Z,36.54
2023-06-29T14:40:27.577Z,36.71
2023-06-29T14:43:30.223Z,35.07
2023-06-29T14:46:33.392Z,34.96
2023-06-29T14:49:35.207Z,35.67
2023-06-29T14:52:39.395Z,35.84
2023-06-29T14:55:40.983Z,35.18
2023-06-29T14:58:42.922Z,33.47
2023-06-29T15:01:47.817Z,34.26
2023-06-29T15:04:51.006Z,33.17
2023-06-29T15:07:58.800Z,34.10
2023-06-29T15:11:00.881Z,33.77
2023-06-29T15:14:02.381Z,33.82
2023-06-29T15:17:09.594Z,33.41
2023-06-29T15:20:16.401Z,33.29
2023-06-29T15:23:18.094Z,33.69
2023-06-29T15:26:23.942Z,32.38
2023-06-29T15:29:28.200Z,33.44
2023-06-29T15:32:33.668Z,33.30
2023-06-29T15:38:53.631Z,31.78
2023-06-29T15:41:56.852Z,32.29
2023-06-29T15:44:58.522Z,32.37
2023-06-29T15:48:00.267Z,32.58
2023-06-29T15:51:03.422Z,33.05
2023-06-29T15:54:05.182Z,32.98
2023-06-29T15:57:06.959Z,32.19
2023-06-29T16:00:09.085Z,32.23
2023-06-29T16:03:19.681Z,31.81
2023-06-29T16:06:29.756Z,31.72
2023-06-29T16:09:35.585Z,33.08
2023-06-29T16:12:37.156Z,33.85
2023-06-29T16:15:38.754Z,33.82
2023-06-29T16:18:41.427Z,33.61
2023-06-29T16:21:43.461Z,33.85
2023-06-29T16:24:45.022Z,33.67
2023-06-29T16:27:52.627Z,35.01
2023-06-29T16:30:55.022Z,34.74
2023-06-29T16:33:56.547Z,33.93
2023-06-29T16:36:59.161Z,34.26
2023-06-29T16:40:00.769Z,34.25
2023-06-29T16:43:02.378Z,34.14
2023-06-29T16:46:06.092Z,33.63
2023-06-29T16:49:09.949Z,33.40
2023-06-29T16:52:13.731Z,34.22
2023-06-29T16:55:22.469Z,34.34
2023-06-29T16:58:27.691Z,33.24
2023-06-29T17:01:29.312Z,32.74
2023-06-29T17:04:41.241Z,33.40
2023-06-29T17:07:42.809Z,33.67
2023-06-29T17:10:44.379Z,34.73
2023-06-29T17:13:46.245Z,35.49
2023-06-29T17:16:47.818Z,35.44
2023-06-29T17:19:50.199Z,35.21
2023-06-29T17:22:52.246Z,35.44
2023-06-29T17:25:53.804Z,36.39
2023-06-29T17:28:55.438Z,37.02
2023-06-29T17:31:57.194Z,38.11
2023-06-29T17:34:58.923Z,38.01
2023-06-29T17:38:04.669Z,38.70
2023-06-29T17:41:06.215Z,39.83
2023-06-29T17:44:07.715Z,39.59
2023-06-29T17:47:09.354Z,39.80
2023-06-29T17:50:16.030Z,39.18
2023-06-29T17:53:17.588Z,40.02
2023-06-29T17:56:24.031Z,40.12
2023-06-29T17:59:25.616Z,41.06
2023-06-29T18:02:32.764Z,41.22
2023-06-29T18:05:34.432Z,41.87
2023-06-29T18:08:35.969Z,41.86
2023-06-29T18:11:37.484Z,42.28
2023-06-29T18:14:46.018Z,41.61
2023-06-29T18:17:56.570Z,41.61
2023-06-29T18:21:00.838Z,41.11
2023-06-29T18:24:06.595Z,42.03
2023-06-29T18:30:23.519Z,42.29
2023-06-29T18:33:37.401Z,43.18
2023-06-29T18:36:38.936Z,44.65
2023-06-29T18:39:40.694Z,44.96
2023-06-29T18:42:42.270Z,45.34
2023-06-29T18:45:44.124Z,45.52
2023-06-29T18:49:05.432Z,45.80
2023-06-29T18:52:07.893Z,45.75
2023-06-29T18:55:12.549Z,45.92
2023-06-29T18:58:14.242Z,45.46
2023-06-29T19:01:16.749Z,45.48
2023-06-29T19:04:18.315Z,46.37
2023-06-29T19:07:22.703Z,47.39
2023-06-29T19:10:24.348Z,47.73
2023-06-29T19:13:27.311Z,47.53
2023-06-29T19:16:29.329Z,48.03
2023-06-29T19:19:34.423Z,48.38
2023-06-29T19:22:36.326Z,48.20
2023-06-29T19:25:42.900Z,47.64
2023-06-29T19:28:46.300Z,47.89
2023-06-29T19:31:50.098Z,47.96
2023-06-29T19:34:52.145Z,48.18
2023-06-29T19:37:54.051Z,48.44
2023-06-29T19:40:55.711Z,48.17
2023-06-29T19:43:57.266Z,48.04
2023-06-29T19:46:58.961Z,47.94
2023-06-29T19:50:00.665Z,47.73
2023-06-29T19:53:05.771Z,48.20
2023-06-29T19:56:09.730Z,48.49
2023-06-29T19:59:11.609Z,48.29
2023-06-29T20:02:13.391Z,48.33
2023-06-29T20:05:15.246Z,48.58
2023-06-29T20:08:20.956Z,48.44
2023-06-29T20:11:23.999Z,48.87
2023-06-29T20:14:30.141Z,48.94
2023-06-29T20:17:32.388Z,49.34
2023-06-29T20:20:33.964Z,49.19
2023-06-29T20:23:37.411Z,49.40
2023-06-29T20:26:41.249Z,49.36
2023-06-29T20:29:42.753Z,49.87
2023-06-29T20:32:47.494Z,50.15
2023-06-29T20:35:49.086Z,49.89
2023-06-29T20:38:50.618Z,49.98
2023-06-29T20:41:52.194Z,50.36
2023-06-29T20:48:12.993Z,50.17
2023-06-29T20:51:18.524Z,50.35
2023-06-29T20:54:20.252Z,50.60
2023-06-29T20:57:22.545Z,50.67
2023-06-29T21:00:27.162Z,50.81
2023-06-29T21:03:34.300Z,51.12
2023-06-29T21:06:36.980Z,51.10
2023-06-29T21:09:38.587Z,51.13
2023-06-29T21:12:40.470Z,51.28
2023-06-29T21:15:42.288Z,51.13
2023-06-29T21:18:44.368Z,51.30
2023-06-29T21:21:46.617Z,51.47
2023-06-29T21:24:48.580Z,51.31
2023-06-29T21:27:52.679Z,52.05
2023-06-29T21:30:54.537Z,51.92
2023-06-29T21:33:56.345Z,51.92
2023-06-29T21:37:00.738Z,52.19
2023-06-29T21:40:02.297Z,52.51
2023-06-29T21:43:06.418Z,52.70
2023-06-29T21:46:08.479Z,52.89
2023-06-29T21:49:10.341Z,53.11
2023-06-29T21:52:11.944Z,53.41
2023-06-29T21:55:17.943Z,53.57
2023-06-29T21:58:22.430Z,53.66
2023-06-29T22:01:30.251Z,54.12
2023-06-29T22:04:34.169Z,54.00
2023-06-29T22:07:40.921Z,54.03
2023-06-29T22:10:42.507Z,54.01
2023-06-29T22:13:59.304Z,54.34
2023-06-29T22:17:08.383Z,54.51
2023-06-29T22:20:14.440Z,54.74
2023-06-29T22:23:16.060Z,54.43
2023-06-29T22:26:23.727Z,55.20
2023-06-29T22:29:26.988Z,55.52
2023-06-29T22:32:38.930Z,56.69
2023-06-29T22:35:42.857Z,59.19
2023-06-29T22:38:46.573Z,60.95
2023-06-29T22:41:48.250Z,61.52
2023-06-29T22:44:50.215Z,62.19
2023-06-29T22:47:52.528Z,61.40
2023-06-29T22:50:56.679Z,60.74
2023-06-29T22:54:01.010Z,60.00
2023-06-29T22:57:02.792Z,59.72
2023-06-29T23:00:07.942Z,59.73
2023-06-29T23:03:09.628Z,59.54
2023-06-29T23:06:11.693Z,59.48
2023-06-29T23:09:22.077Z,59.16
2023-06-29T23:12:26.853Z,59.01
2023-06-29T23:15:30.707Z,58.87
2023-06-29T23:18:32.251Z,59.28
2023-06-29T23:21:33.762Z,60.18
2023-06-29T23:24:35.871Z,60.45
2023-06-29T23:27:55.658Z,61.15
2023-06-29T23:30:57.633Z,61.27
2023-06-29T23:34:04.333Z,61.45
2023-06-29T23:37:08.674Z,61.14
2023-06-29T23:40:16.836Z,61.10
2023-06-29T23:43:18.632Z,61.45
2023-06-29T23:46:26.400Z,62.50
2023-06-29T23:49:28.268Z,62.78
2023-06-29T23:52:32.888Z,62.80
2023-06-29T23:55:34.625Z,62.43
2023-06-29T23:58:39.710Z,62.76
